sensor_id;sensor_type;location;lat;lon;timestamp;P1;durP1;ratioP1;P2;durP2;ratioP2
14316;SDS011;7242;50.858;6.586;2023-04-25T00:00:31;9.70;;;5.27;;
14316;SDS011;7242;50.858;6.586;2023-04-25T00:03:32;8.13;;;4.67;;
14316;SDS011;7242;50.858;6.586;2023-04-25T00:06:34;8.17;;;4.73;;
14316;SDS011;7242;50.858;6.586;2023-04-25T00:09:36;10.10;;;4.50;;
14316;SDS011;7242;50.858;6.586;2023-04-25T00:12:36;7.17;;;4.13;;
14316;SDS011;7242;50.858;6.586;2023-04-25T00:15:38;10.27;;;4.77;;
14316;SDS011;7242;50.858;6.586;2023-04-25T00:18:41;10.00;;;4.87;;
14316;SDS011;7242;50.858;6.586;2023-04-25T00:21:42;9.83;;;4.80;;
14316;SDS011;7242;50.858;6.586;2023-04-25T00:24:46;12.27;;;4.87;;
14316;SDS011;7242;50.858;6.586;2023-04-25T00:27:46;8.20;;;4.60;;
14316;SDS011;7242;50.858;6.586;2023-04-25T00:30:48;9.53;;;4.50;;
14316;SDS011;7242;50.858;6.586;2023-04-25T00:33:49;10.40;;;4.87;;
14316;SDS011;7242;50.858;6.586;2023-04-25T00:36:49;11.07;;;4.80;;
14316;SDS011;7242;50.858;6.586;2023-04-25T00:39:50;8.23;;;4.40;;
14316;SDS011;7242;50.858;6.586;2023-04-25T00:42:53;8.53;;;4.07;;
14316;SDS011;7242;50.858;6.586;2023-04-25T00:45:54;8.43;;;4.53;;
14316;SDS011;7242;50.858;6.586;2023-04-25T00:48:58;12.57;;;4.77;;
14316;SDS011;7242;50.858;6.586;2023-04-25T00:51:59;10.90;;;4.97;;
14316;SDS011;7242;50.858;6.586;2023-04-25T00:55:00;10.37;;;5.00;;
14316;SDS011;7242;50.858;6.586;2023-04-25T00:58:01;9.33;;;4.57;;
14316;SDS011;7242;50.858;6.586;2023-04-25T01:01:01;11.23;;;4.43;;
14316;SDS011;7242;50.858;6.586;2023-04-25T01:04:02;9.93;;;4.50;;
14316;SDS011;7242;50.858;6.586;2023-04-25T01:07:03;8.90;;;4.60;;
14316;SDS011;7242;50.858;6.586;2023-04-25T01:10:05;10.33;;;4.90;;
14316;SDS011;7242;50.858;6.586;2023-04-25T01:13:06;12.70;;;4.97;;
14316;SDS011;7242;50.858;6.586;2023-04-25T01:16:07;9.47;;;4.97;;
14316;SDS011;7242;50.858;6.586;2023-04-25T01:19:11;13.70;;;5.10;;
14316;SDS011;7242;50.858;6.586;2023-04-25T01:22:16;12.93;;;4.77;;
14316;SDS011;7242;50.858;6.586;2023-04-25T01:25:17;10.83;;;4.93;;
14316;SDS011;7242;50.858;6.586;2023-04-25T01:28:18;9.80;;;4.90;;
14316;SDS011;7242;50.858;6.586;2023-04-25T01:31:19;11.07;;;5.07;;
14316;SDS011;7242;50.858;6.586;2023-04-25T01:34:21;8.50;;;4.27;;
14316;SDS011;7242;50.858;6.586;2023-04-25T01:37:21;9.17;;;4.33;;
14316;SDS011;7242;50.858;6.586;2023-04-25T01:40:23;8.27;;;4.50;;
14316;SDS011;7242;50.858;6.586;2023-04-25T01:43:25;11.23;;;4.87;;
14316;SDS011;7242;50.858;6.586;2023-04-25T01:46:27;15.57;;;5.03;;
14316;SDS011;7242;50.858;6.586;2023-04-25T01:49:27;12.10;;;5.10;;
14316;SDS011;7242;50.858;6.586;2023-04-25T01:52:29;14.67;;;4.93;;
14316;SDS011;7242;50.858;6.586;2023-04-25T01:55:30;13.40;;;5.13;;
14316;SDS011;7242;50.858;6.586;2023-04-25T01:58:37;13.50;;;5.30;;
14316;SDS011;7242;50.858;6.586;2023-04-25T02:01:40;10.47;;;5.20;;
14316;SDS011;7242;50.858;6.586;2023-04-25T02:04:53;11.37;;;5.20;;
14316;SDS011;7242;50.858;6.586;2023-04-25T02:07:55;9.60;;;4.87;;
14316;SDS011;7242;50.858;6.586;2023-04-25T02:10:59;12.97;;;4.83;;
14316;SDS011;7242;50.858;6.586;2023-04-25T02:14:06;11.40;;;4.60;;
14316;SDS011;7242;50.858;6.586;2023-04-25T02:17:24;9.40;;;4.73;;
14316;SDS011;7242;50.858;6.586;2023-04-25T02:20:26;10.33;;;4.70;;
14316;SDS011;7242;50.858;6.586;2023-04-25T02:23:29;10.43;;;4.47;;
14316;SDS011;7242;50.858;6.586;2023-04-25T02:26:30;9.87;;;4.93;;
14316;SDS011;7242;50.858;6.586;2023-04-25T02:29:32;10.90;;;4.80;;
14316;SDS011;7242;50.858;6.586;2023-04-25T02:32:32;9.30;;;4.90;;
14316;SDS011;7242;50.858;6.586;2023-04-25T02:35:36;13.20;;;5.10;;
14316;SDS011;7242;50.858;6.586;2023-04-25T02:38:37;8.90;;;4.53;;
14316;SDS011;7242;50.858;6.586;2023-04-25T02:41:38;9.60;;;5.20;;
14316;SDS011;7242;50.858;6.586;2023-04-25T02:44:39;13.70;;;5.47;;
14316;SDS011;7242;50.858;6.586;2023-04-25T02:47:40;12.60;;;5.13;;
14316;SDS011;7242;50.858;6.586;2023-04-25T02:50:41;13.67;;;5.53;;
14316;SDS011;7242;50.858;6.586;2023-04-25T02:53:42;13.70;;;4.87;;
14316;SDS011;7242;50.858;6.586;2023-04-25T02:56:43;13.67;;;5.47;;
14316;SDS011;7242;50.858;6.586;2023-04-25T02:59:49;8.53;;;4.90;;
14316;SDS011;7242;50.858;6.586;2023-04-25T03:02:50;12.20;;;5.60;;
14316;SDS011;7242;50.858;6.586;2023-04-25T03:05:51;14.60;;;6.10;;
14316;SDS011;7242;50.858;6.586;2023-04-25T03:08:57;13.97;;;5.40;;
14316;SDS011;7242;50.858;6.586;2023-04-25T03:11:58;14.37;;;5.93;;
14316;SDS011;7242;50.858;6.586;2023-04-25T03:14:59;13.33;;;5.83;;
14316;SDS011;7242;50.858;6.586;2023-04-25T03:18:00;8.27;;;5.40;;
14316;SDS011;7242;50.858;6.586;2023-04-25T03:21:01;14.67;;;5.63;;
14316;SDS011;7242;50.858;6.586;2023-04-25T03:24:02;11.20;;;5.30;;
14316;SDS011;7242;50.858;6.586;2023-04-25T03:27:04;15.17;;;5.73;;
14316;SDS011;7242;50.858;6.586;2023-04-25T03:30:05;14.10;;;5.83;;
14316;SDS011;7242;50.858;6.586;2023-04-25T03:33:08;12.57;;;5.90;;
14316;SDS011;7242;50.858;6.586;2023-04-25T03:36:10;15.03;;;5.73;;
14316;SDS011;7242;50.858;6.586;2023-04-25T03:39:10;10.03;;;5.10;;
14316;SDS011;7242;50.858;6.586;2023-04-25T03:42:14;12.50;;;6.03;;
14316;SDS011;7242;50.858;6.586;2023-04-25T03:45:17;11.37;;;5.70;;
14316;SDS011;7242;50.858;6.586;2023-04-25T03:48:19;14.20;;;5.93;;
14316;SDS011;7242;50.858;6.586;2023-04-25T03:51:25;11.70;;;5.30;;
14316;SDS011;7242;50.858;6.586;2023-04-25T03:54:27;11.07;;;5.63;;
14316;SDS011;7242;50.858;6.586;2023-04-25T03:57:40;15.00;;;6.03;;
14316;SDS011;7242;50.858;6.586;2023-04-25T04:00:41;12.10;;;6.13;;
14316;SDS011;7242;50.858;6.586;2023-04-25T04:03:42;14.43;;;6.20;;
14316;SDS011;7242;50.858;6.586;2023-04-25T04:06:43;12.40;;;6.20;;
14316;SDS011;7242;50.858;6.586;2023-04-25T04:09:51;11.07;;;6.40;;
14316;SDS011;7242;50.858;6.586;2023-04-25T04:12:58;14.93;;;6.40;;
14316;SDS011;7242;50.858;6.586;2023-04-25T04:15:59;11.20;;;5.87;;
14316;SDS011;7242;50.858;6.586;2023-04-25T04:19:00;13.77;;;6.40;;
14316;SDS011;7242;50.858;6.586;2023-04-25T04:22:02;10.53;;;5.90;;
14316;SDS011;7242;50.858;6.586;2023-04-25T04:25:03;11.17;;;6.17;;
14316;SDS011;7242;50.858;6.586;2023-04-25T04:28:24;14.07;;;6.50;;
14316;SDS011;7242;50.858;6.586;2023-04-25T04:31:45;16.47;;;6.47;;
14316;SDS011;7242;50.858;6.586;2023-04-25T04:34:46;13.53;;;5.57;;
14316;SDS011;7242;50.858;6.586;2023-04-25T04:37:49;16.23;;;5.73;;
14316;SDS011;7242;50.858;6.586;2023-04-25T04:40:52;12.00;;;5.73;;
14316;SDS011;7242;50.858;6.586;2023-04-25T04:44:14;14.17;;;6.10;;
14316;SDS011;7242;50.858;6.586;2023-04-25T04:47:47;11.10;;;6.00;;
14316;SDS011;7242;50.858;6.586;2023-04-25T04:51:11;17.83;;;5.90;;
14316;SDS011;7242;50.858;6.586;2023-04-25T04:54:30;14.67;;;6.37;;
14316;SDS011;7242;50.858;6.586;2023-04-25T04:57:45;12.07;;;5.93;;
14316;SDS011;7242;50.858;6.586;2023-04-25T05:01:12;13.80;;;6.17;;
14316;SDS011;7242;50.858;6.586;2023-04-25T05:04:29;10.97;;;5.53;;
14316;SDS011;7242;50.858;6.586;2023-04-25T05:07:48;13.10;;;5.57;;
14316;SDS011;7242;50.858;6.586;2023-04-25T05:11:11;17.83;;;6.50;;
14316;SDS011;7242;50.858;6.586;2023-04-25T05:14:35;12.37;;;5.90;;
14316;SDS011;7242;50.858;6.586;2023-04-25T05:17:42;12.93;;;5.77;;
14316;SDS011;7242;50.858;6.586;2023-04-25T05:21:09;14.77;;;5.43;;
14316;SDS011;7242;50.858;6.586;2023-04-25T05:24:20;20.80;;;5.90;;
14316;SDS011;7242;50.858;6.586;2023-04-25T05:27:20;14.03;;;5.80;;
14316;SDS011;7242;50.858;6.586;2023-04-25T05:30:41;13.20;;;5.93;;
14316;SDS011;7242;50.858;6.586;2023-04-25T05:33:50;14.80;;;6.13;;
14316;SDS011;7242;50.858;6.586;2023-04-25T05:36:52;16.27;;;5.70;;
14316;SDS011;7242;50.858;6.586;2023-04-25T05:39:53;12.87;;;5.60;;
14316;SDS011;7242;50.858;6.586;2023-04-25T05:43:09;17.13;;;5.57;;
14316;SDS011;7242;50.858;6.586;2023-04-25T05:46:29;11.03;;;5.10;;
14316;SDS011;7242;50.858;6.586;2023-04-25T05:49:46;14.20;;;5.73;;
14316;SDS011;7242;50.858;6.586;2023-04-25T05:53:01;10.00;;;5.00;;
14316;SDS011;7242;50.858;6.586;2023-04-25T05:56:16;12.80;;;5.63;;
14316;SDS011;7242;50.858;6.586;2023-04-25T05:59:19;16.37;;;5.70;;
14316;SDS011;7242;50.858;6.586;2023-04-25T06:02:20;14.97;;;5.10;;
14316;SDS011;7242;50.858;6.586;2023-04-25T06:05:22;17.60;;;5.27;;
14316;SDS011;7242;50.858;6.586;2023-04-25T06:08:23;15.90;;;5.10;;
14316;SDS011;7242;50.858;6.586;2023-04-25T06:11:24;12.93;;;4.67;;
14316;SDS011;7242;50.858;6.586;2023-04-25T06:14:25;11.77;;;4.67;;
14316;SDS011;7242;50.858;6.586;2023-04-25T06:17:27;11.13;;;4.13;;
14316;SDS011;7242;50.858;6.586;2023-04-25T06:20:28;13.40;;;3.93;;
14316;SDS011;7242;50.858;6.586;2023-04-25T06:23:32;14.07;;;4.20;;
14316;SDS011;7242;50.858;6.586;2023-04-25T06:26:37;12.37;;;4.40;;
14316;SDS011;7242;50.858;6.586;2023-04-25T06:29:39;11.73;;;4.20;;
14316;SDS011;7242;50.858;6.586;2023-04-25T06:32:39;12.17;;;4.17;;
14316;SDS011;7242;50.858;6.586;2023-04-25T06:35:40;11.87;;;3.97;;
14316;SDS011;7242;50.858;6.586;2023-04-25T06:38:45;12.33;;;4.17;;
14316;SDS011;7242;50.858;6.586;2023-04-25T06:41:46;13.73;;;3.87;;
14316;SDS011;7242;50.858;6.586;2023-04-25T06:45:07;14.30;;;4.10;;
14316;SDS011;7242;50.858;6.586;2023-04-25T06:48:09;12.93;;;4.40;;
14316;SDS011;7242;50.858;6.586;2023-04-25T06:51:10;13.70;;;3.93;;
14316;SDS011;7242;50.858;6.586;2023-04-25T06:54:13;10.50;;;3.30;;
14316;SDS011;7242;50.858;6.586;2023-04-25T06:57:23;9.23;;;3.47;;
14316;SDS011;7242;50.858;6.586;2023-04-25T07:00:24;8.37;;;3.40;;
14316;SDS011;7242;50.858;6.586;2023-04-25T07:03:25;9.40;;;3.50;;
14316;SDS011;7242;50.858;6.586;2023-04-25T07:06:30;12.93;;;3.53;;
14316;SDS011;7242;50.858;6.586;2023-04-25T07:09:31;12.17;;;3.47;;
14316;SDS011;7242;50.858;6.586;2023-04-25T07:12:34;10.23;;;3.33;;
14316;SDS011;7242;50.858;6.586;2023-04-25T07:15:34;15.33;;;3.70;;
14316;SDS011;7242;50.858;6.586;2023-04-25T07:18:36;12.03;;;3.37;;
14316;SDS011;7242;50.858;6.586;2023-04-25T07:21:37;10.50;;;3.63;;
14316;SDS011;7242;50.858;6.586;2023-04-25T07:24:39;15.27;;;3.40;;
14316;SDS011;7242;50.858;6.586;2023-04-25T07:27:41;11.27;;;2.90;;
14316;SDS011;7242;50.858;6.586;2023-04-25T07:30:47;8.90;;;2.60;;
14316;SDS011;7242;50.858;6.586;2023-04-25T07:33:48;12.03;;;2.90;;
14316;SDS011;7242;50.858;6.586;2023-04-25T07:36:49;9.57;;;2.93;;
14316;SDS011;7242;50.858;6.586;2023-04-25T07:39:49;8.40;;;3.13;;
14316;SDS011;7242;50.858;6.586;2023-04-25T07:42:55;7.67;;;2.53;;
14316;SDS011;7242;50.858;6.586;2023-04-25T07:46:03;9.00;;;2.57;;
14316;SDS011;7242;50.858;6.586;2023-04-25T07:49:07;11.60;;;3.10;;
14316;SDS011;7242;50.858;6.586;2023-04-25T07:52:08;9.53;;;2.67;;
14316;SDS011;7242;50.858;6.586;2023-04-25T07:55:11;9.93;;;2.80;;
14316;SDS011;7242;50.858;6.586;2023-04-25T07:58:24;11.30;;;3.10;;
14316;SDS011;7242;50.858;6.586;2023-04-25T08:01:29;10.53;;;3.00;;
14316;SDS011;7242;50.858;6.586;2023-04-25T08:04:33;8.33;;;2.77;;
14316;SDS011;7242;50.858;6.586;2023-04-25T08:07:37;6.93;;;3.00;;
14316;SDS011;7242;50.858;6.586;2023-04-25T08:10:40;11.10;;;2.90;;
14316;SDS011;7242;50.858;6.586;2023-04-25T08:13:42;8.50;;;2.47;;
14316;SDS011;7242;50.858;6.586;2023-04-25T08:16:43;7.30;;;2.70;;
14316;SDS011;7242;50.858;6.586;2023-04-25T08:19:44;8.90;;;2.50;;
14316;SDS011;7242;50.858;6.586;2023-04-25T08:22:55;10.57;;;2.67;;
14316;SDS011;7242;50.858;6.586;2023-04-25T08:26:19;10.23;;;2.97;;
14316;SDS011;7242;50.858;6.586;2023-04-25T08:29:21;6.33;;;2.60;;
14316;SDS011;7242;50.858;6.586;2023-04-25T08:32:24;9.13;;;2.33;;
14316;SDS011;7242;50.858;6.586;2023-04-25T08:35:44;11.57;;;2.57;;
14316;SDS011;7242;50.858;6.586;2023-04-25T08:38:47;9.23;;;2.50;;
14316;SDS011;7242;50.858;6.586;2023-04-25T08:41:52;6.17;;;2.30;;
14316;SDS011;7242;50.858;6.586;2023-04-25T08:44:53;9.37;;;2.50;;
14316;SDS011;7242;50.858;6.586;2023-04-25T08:47:58;8.63;;;2.60;;
14316;SDS011;7242;50.858;6.586;2023-04-25T08:50:59;6.40;;;2.03;;
14316;SDS011;7242;50.858;6.586;2023-04-25T08:54:10;10.07;;;2.23;;
14316;SDS011;7242;50.858;6.586;2023-04-25T08:57:12;9.30;;;2.37;;
14316;SDS011;7242;50.858;6.586;2023-04-25T09:00:14;8.40;;;2.40;;
14316;SDS011;7242;50.858;6.586;2023-04-25T09:03:17;12.13;;;2.50;;
14316;SDS011;7242;50.858;6.586;2023-04-25T09:06:20;7.87;;;2.13;;
14316;SDS011;7242;50.858;6.586;2023-04-25T09:09:23;6.73;;;2.23;;
14316;SDS011;7242;50.858;6.586;2023-04-25T09:12:24;7.50;;;2.00;;
14316;SDS011;7242;50.858;6.586;2023-04-25T09:15:26;7.63;;;2.07;;
14316;SDS011;7242;50.858;6.586;2023-04-25T09:18:54;6.57;;;2.00;;
14316;SDS011;7242;50.858;6.586;2023-04-25T09:21:57;6.70;;;1.70;;
14316;SDS011;7242;50.858;6.586;2023-04-25T09:24:59;6.67;;;2.27;;
14316;SDS011;7242;50.858;6.586;2023-04-25T09:28:14;7.67;;;2.07;;
14316;SDS011;7242;50.858;6.586;2023-04-25T09:31:22;7.63;;;2.20;;
14316;SDS011;7242;50.858;6.586;2023-04-25T09:34:37;7.83;;;2.30;;
14316;SDS011;7242;50.858;6.586;2023-04-25T09:37:40;7.27;;;2.47;;
14316;SDS011;7242;50.858;6.586;2023-04-25T09:41:23;7.40;;;2.23;;
14316;SDS011;7242;50.858;6.586;2023-04-25T09:44:24;9.73;;;2.20;;
14316;SDS011;7242;50.858;6.586;2023-04-25T09:47:28;10.57;;;2.50;;
14316;SDS011;7242;50.858;6.586;2023-04-25T09:50:30;10.60;;;2.40;;
14316;SDS011;7242;50.858;6.586;2023-04-25T09:53:41;8.67;;;2.60;;
14316;SDS011;7242;50.858;6.586;2023-04-25T09:57:14;10.23;;;2.97;;
14316;SDS011;7242;50.858;6.586;2023-04-25T10:00:16;6.73;;;2.40;;
14316;SDS011;7242;50.858;6.586;2023-04-25T10:03:18;7.20;;;2.50;;
14316;SDS011;7242;50.858;6.586;2023-04-25T10:06:45;8.53;;;2.87;;
14316;SDS011;7242;50.858;6.586;2023-04-25T10:09:50;5.83;;;2.17;;
14316;SDS011;7242;50.858;6.586;2023-04-25T10:12:59;9.60;;;2.80;;
14316;SDS011;7242;50.858;6.586;2023-04-25T10:16:02;5.27;;;2.60;;
14316;SDS011;7242;50.858;6.586;2023-04-25T10:19:04;4.93;;;2.20;;
14316;SDS011;7242;50.858;6.586;2023-04-25T10:22:13;8.57;;;2.83;;
14316;SDS011;7242;50.858;6.586;2023-04-25T10:25:18;8.07;;;2.30;;
14316;SDS011;7242;50.858;6.586;2023-04-25T10:28:19;7.47;;;2.70;;
14316;SDS011;7242;50.858;6.586;2023-04-25T10:31:20;9.10;;;2.97;;
14316;SDS011;7242;50.858;6.586;2023-04-25T10:34:36;7.13;;;2.30;;
14316;SDS011;7242;50.858;6.586;2023-04-25T10:37:56;8.93;;;2.60;;
14316;SDS011;7242;50.858;6.586;2023-04-25T10:41:08;7.40;;;2.37;;
14316;SDS011;7242;50.858;6.586;2023-04-25T10:44:09;6.50;;;2.03;;
14316;SDS011;7242;50.858;6.586;2023-04-25T10:47:10;6.63;;;2.30;;
14316;SDS011;7242;50.858;6.586;2023-04-25T10:50:11;6.77;;;2.40;;
14316;SDS011;7242;50.858;6.586;2023-04-25T10:53:14;5.87;;;2.53;;
14316;SDS011;7242;50.858;6.586;2023-04-25T10:56:19;5.93;;;2.33;;
14316;SDS011;7242;50.858;6.586;2023-04-25T10:59:22;7.57;;;2.67;;
14316;SDS011;7242;50.858;6.586;2023-04-25T11:02:26;5.70;;;2.00;;
14316;SDS011;7242;50.858;6.586;2023-04-25T11:05:32;6.27;;;1.73;;
14316;SDS011;7242;50.858;6.586;2023-04-25T11:08:44;5.63;;;1.87;;
14316;SDS011;7242;50.858;6.586;2023-04-25T11:11:55;5.90;;;2.17;;
14316;SDS011;7242;50.858;6.586;2023-04-25T11:15:04;3.30;;;1.80;;
14316;SDS011;7242;50.858;6.586;2023-04-25T11:18:07;5.33;;;2.00;;
14316;SDS011;7242;50.858;6.586;2023-04-25T11:21:08;8.07;;;2.57;;
14316;SDS011;7242;50.858;6.586;2023-04-25T11:24:09;5.23;;;1.90;;
14316;SDS011;7242;50.858;6.586;2023-04-25T11:27:10;5.27;;;2.17;;
14316;SDS011;7242;50.858;6.586;2023-04-25T11:30:14;4.10;;;1.97;;
14316;SDS011;7242;50.858;6.586;2023-04-25T11:33:16;7.47;;;2.23;;
14316;SDS011;7242;50.858;6.586;2023-04-25T11:36:16;6.53;;;2.10;;
14316;SDS011;7242;50.858;6.586;2023-04-25T11:39:17;7.60;;;2.43;;
14316;SDS011;7242;50.858;6.586;2023-04-25T11:42:19;8.23;;;2.43;;
14316;SDS011;7242;50.858;6.586;2023-04-25T11:45:20;5.23;;;2.30;;
14316;SDS011;7242;50.858;6.586;2023-04-25T11:48:22;6.27;;;2.23;;
14316;SDS011;7242;50.858;6.586;2023-04-25T11:51:23;7.60;;;2.30;;
14316;SDS011;7242;50.858;6.586;2023-04-25T11:54:24;6.57;;;2.10;;
14316;SDS011;7242;50.858;6.586;2023-04-25T11:57:25;5.47;;;2.20;;
14316;SDS011;7242;50.858;6.586;2023-04-25T12:00:26;5.67;;;2.10;;
14316;SDS011;7242;50.858;6.586;2023-04-25T12:03:29;6.67;;;2.07;;
14316;SDS011;7242;50.858;6.586;2023-04-25T12:06:33;6.10;;;2.37;;
14316;SDS011;7242;50.858;6.586;2023-04-25T12:09:39;6.17;;;2.23;;
14316;SDS011;7242;50.858;6.586;2023-04-25T12:12:41;4.57;;;2.10;;
14316;SDS011;7242;50.858;6.586;2023-04-25T12:15:43;4.10;;;2.03;;
14316;SDS011;7242;50.858;6.586;2023-04-25T12:18:44;7.03;;;2.10;;
14316;SDS011;7242;50.858;6.586;2023-04-25T12:21:45;7.53;;;2.13;;
14316;SDS011;7242;50.858;6.586;2023-04-25T12:24:46;6.80;;;2.40;;
14316;SDS011;7242;50.858;6.586;2023-04-25T12:27:47;7.53;;;2.10;;
14316;SDS011;7242;50.858;6.586;2023-04-25T12:30:53;4.80;;;2.33;;
14316;SDS011;7242;50.858;6.586;2023-04-25T12:33:55;6.57;;;2.00;;
14316;SDS011;7242;50.858;6.586;2023-04-25T12:36:57;5.17;;;2.30;;
14316;SDS011;7242;50.858;6.586;2023-04-25T12:39:58;5.87;;;1.97;;
14316;SDS011;7242;50.858;6.586;2023-04-25T12:42:58;4.70;;;2.03;;
14316;SDS011;7242;50.858;6.586;2023-04-25T12:45:59;9.13;;;2.43;;
14316;SDS011;7242;50.858;6.586;2023-04-25T12:49:00;10.73;;;2.70;;
14316;SDS011;7242;50.858;6.586;2023-04-25T12:52:03;4.73;;;1.73;;
14316;SDS011;7242;50.858;6.586;2023-04-25T12:55:04;5.50;;;1.47;;
14316;SDS011;7242;50.858;6.586;2023-04-25T12:58:05;6.30;;;2.00;;
14316;SDS011;7242;50.858;6.586;2023-04-25T13:01:07;7.37;;;1.87;;
14316;SDS011;7242;50.858;6.586;2023-04-25T13:04:08;4.37;;;1.63;;
14316;SDS011;7242;50.858;6.586;2023-04-25T13:07:09;3.97;;;1.60;;
14316;SDS011;7242;50.858;6.586;2023-04-25T13:10:10;4.07;;;1.80;;
14316;SDS011;7242;50.858;6.586;2023-04-25T13:13:11;6.23;;;1.90;;
14316;SDS011;7242;50.858;6.586;2023-04-25T13:16:11;4.23;;;1.80;;
14316;SDS011;7242;50.858;6.586;2023-04-25T13:19:16;5.40;;;2.10;;
14316;SDS011;7242;50.858;6.586;2023-04-25T13:22:16;6.97;;;2.00;;
14316;SDS011;7242;50.858;6.586;2023-04-25T13:25:20;8.23;;;1.90;;
14316;SDS011;7242;50.858;6.586;2023-04-25T13:28:21;5.10;;;1.73;;
14316;SDS011;7242;50.858;6.586;2023-04-25T13:31:22;6.17;;;2.00;;
14316;SDS011;7242;50.858;6.586;2023-04-25T13:34:23;5.00;;;1.80;;
14316;SDS011;7242;50.858;6.586;2023-04-25T13:37:23;6.50;;;2.30;;
14316;SDS011;7242;50.858;6.586;2023-04-25T13:40:24;4.37;;;1.90;;
14316;SDS011;7242;50.858;6.586;2023-04-25T13:43:26;5.37;;;1.53;;
14316;SDS011;7242;50.858;6.586;2023-04-25T13:46:27;5.53;;;1.73;;
14316;SDS011;7242;50.858;6.586;2023-04-25T13:49:28;3.77;;;1.67;;
14316;SDS011;7242;50.858;6.586;2023-04-25T13:52:29;5.13;;;2.03;;
14316;SDS011;7242;50.858;6.586;2023-04-25T13:55:30;5.57;;;1.80;;
14316;SDS011;7242;50.858;6.586;2023-04-25T13:58:30;5.57;;;1.90;;
14316;SDS011;7242;50.858;6.586;2023-04-25T14:01:32;4.27;;;1.80;;
14316;SDS011;7242;50.858;6.586;2023-04-25T14:04:35;6.63;;;2.10;;
14316;SDS011;7242;50.858;6.586;2023-04-25T14:07:36;5.57;;;2.17;;
14316;SDS011;7242;50.858;6.586;2023-04-25T14:10:37;6.90;;;2.23;;
14316;SDS011;7242;50.858;6.586;2023-04-25T14:13:37;3.57;;;2.03;;
14316;SDS011;7242;50.858;6.586;2023-04-25T14:16:38;3.33;;;1.80;;
14316;SDS011;7242;50.858;6.586;2023-04-25T14:19:39;5.03;;;2.20;;
14316;SDS011;7242;50.858;6.586;2023-04-25T14:22:43;4.00;;;1.90;;
14316;SDS011;7242;50.858;6.586;2023-04-25T14:25:44;4.70;;;1.73;;
14316;SDS011;7242;50.858;6.586;2023-04-25T14:28:45;4.63;;;1.73;;
14316;SDS011;7242;50.858;6.586;2023-04-25T14:31:46;4.97;;;1.80;;
14316;SDS011;7242;50.858;6.586;2023-04-25T14:34:47;5.03;;;1.60;;
14316;SDS011;7242;50.858;6.586;2023-04-25T14:37:47;4.17;;;1.70;;
14316;SDS011;7242;50.858;6.586;2023-04-25T14:40:48;6.10;;;1.93;;
14316;SDS011;7242;50.858;6.586;2023-04-25T14:43:50;5.97;;;1.70;;
14316;SDS011;7242;50.858;6.586;2023-04-25T14:46:51;3.57;;;1.47;;
14316;SDS011;7242;50.858;6.586;2023-04-25T14:49:51;4.17;;;1.80;;
14316;SDS011;7242;50.858;6.586;2023-04-25T14:52:54;4.77;;;1.57;;
14316;SDS011;7242;50.858;6.586;2023-04-25T14:55:58;2.53;;;1.43;;
14316;SDS011;7242;50.858;6.586;2023-04-25T14:58:59;4.30;;;1.53;;
14316;SDS011;7242;50.858;6.586;2023-04-25T15:02:00;3.80;;;1.67;;
14316;SDS011;7242;50.858;6.586;2023-04-25T15:05:01;3.27;;;1.60;;
14316;SDS011;7242;50.858;6.586;2023-04-25T15:08:02;2.73;;;1.30;;
14316;SDS011;7242;50.858;6.586;2023-04-25T15:11:02;2.67;;;1.70;;
14316;SDS011;7242;50.858;6.586;2023-04-25T15:14:03;2.13;;;1.40;;
14316;SDS011;7242;50.858;6.586;2023-04-25T15:17:04;5.70;;;1.53;;
14316;SDS011;7242;50.858;6.586;2023-04-25T15:20:06;6.10;;;1.53;;
14316;SDS011;7242;50.858;6.586;2023-04-25T15:23:09;5.53;;;1.97;;
14316;SDS011;7242;50.858;6.586;2023-04-25T15:26:11;2.53;;;1.50;;
14316;SDS011;7242;50.858;6.586;2023-04-25T15:29:11;5.07;;;1.63;;
14316;SDS011;7242;50.858;6.586;2023-04-25T15:32:12;3.37;;;1.60;;
14316;SDS011;7242;50.858;6.586;2023-04-25T15:35:13;5.17;;;1.50;;
14316;SDS011;7242;50.858;6.586;2023-04-25T15:38:15;4.50;;;1.37;;
14316;SDS011;7242;50.858;6.586;2023-04-25T15:41:16;5.13;;;1.57;;
14316;SDS011;7242;50.858;6.586;2023-04-25T15:44:17;3.40;;;1.30;;
14316;SDS011;7242;50.858;6.586;2023-04-25T15:47:18;2.87;;;1.50;;
14316;SDS011;7242;50.858;6.586;2023-04-25T15:50:19;4.87;;;1.60;;
14316;SDS011;7242;50.858;6.586;2023-04-25T15:53:21;5.57;;;1.47;;
14316;SDS011;7242;50.858;6.586;2023-04-25T15:56:22;3.33;;;1.23;;
14316;SDS011;7242;50.858;6.586;2023-04-25T15:59:23;4.43;;;2.00;;
14316;SDS011;7242;50.858;6.586;2023-04-25T16:02:24;3.50;;;1.60;;
14316;SDS011;7242;50.858;6.586;2023-04-25T16:05:25;3.53;;;1.43;;
14316;SDS011;7242;50.858;6.586;2023-04-25T16:08:26;4.70;;;1.27;;
14316;SDS011;7242;50.858;6.586;2023-04-25T16:11:28;3.83;;;1.20;;
14316;SDS011;7242;50.858;6.586;2023-04-25T16:14:30;5.23;;;1.40;;
14316;SDS011;7242;50.858;6.586;2023-04-25T16:17:30;4.23;;;1.20;;
14316;SDS011;7242;50.858;6.586;2023-04-25T16:20:32;3.50;;;1.00;;
14316;SDS011;7242;50.858;6.586;2023-04-25T16:23:34;2.53;;;1.20;;
14316;SDS011;7242;50.858;6.586;2023-04-25T16:26:35;3.77;;;1.17;;
14316;SDS011;7242;50.858;6.586;2023-04-25T16:29:36;5.70;;;1.30;;
14316;SDS011;7242;50.858;6.586;2023-04-25T16:32:37;3.53;;;1.17;;
14316;SDS011;7242;50.858;6.586;2023-04-25T16:35:39;3.90;;;1.13;;
14316;SDS011;7242;50.858;6.586;2023-04-25T16:38:40;4.40;;;1.40;;
14316;SDS011;7242;50.858;6.586;2023-04-25T16:41:40;4.37;;;1.47;;
14316;SDS011;7242;50.858;6.586;2023-04-25T16:44:41;3.00;;;1.13;;
14316;SDS011;7242;50.858;6.586;2023-04-25T16:47:42;3.20;;;1.37;;
14316;SDS011;7242;50.858;6.586;2023-04-25T16:50:43;4.43;;;1.40;;
14316;SDS011;7242;50.858;6.586;2023-04-25T16:53:44;6.90;;;1.50;;
14316;SDS011;7242;50.858;6.586;2023-04-25T16:56:45;3.50;;;1.13;;
14316;SDS011;7242;50.858;6.586;2023-04-25T16:59:46;5.20;;;1.50;;
14316;SDS011;7242;50.858;6.586;2023-04-25T17:02:47;5.00;;;1.80;;
14316;SDS011;7242;50.858;6.586;2023-04-25T17:05:52;2.73;;;1.40;;
14316;SDS011;7242;50.858;6.586;2023-04-25T17:08:55;4.83;;;1.37;;
14316;SDS011;7242;50.858;6.586;2023-04-25T17:11:57;5.63;;;1.60;;
14316;SDS011;7242;50.858;6.586;2023-04-25T17:14:58;5.57;;;1.40;;
14316;SDS011;7242;50.858;6.586;2023-04-25T17:18:00;5.67;;;1.80;;
14316;SDS011;7242;50.858;6.586;2023-04-25T17:21:01;4.20;;;1.33;;
14316;SDS011;7242;50.858;6.586;2023-04-25T17:24:03;4.17;;;1.20;;
14316;SDS011;7242;50.858;6.586;2023-04-25T17:27:09;6.57;;;1.43;;
14316;SDS011;7242;50.858;6.586;2023-04-25T17:30:10;2.50;;;1.20;;
14316;SDS011;7242;50.858;6.586;2023-04-25T17:33:11;5.00;;;1.30;;
14316;SDS011;7242;50.858;6.586;2023-04-25T17:36:13;5.00;;;1.60;;
14316;SDS011;7242;50.858;6.586;2023-04-25T17:39:14;3.50;;;1.40;;
14316;SDS011;7242;50.858;6.586;2023-04-25T17:42:16;3.27;;;1.37;;
14316;SDS011;7242;50.858;6.586;2023-04-25T17:45:17;3.23;;;1.40;;
14316;SDS011;7242;50.858;6.586;2023-04-25T17:48:18;2.60;;;1.30;;
14316;SDS011;7242;50.858;6.586;2023-04-25T17:51:21;3.90;;;1.70;;
14316;SDS011;7242;50.858;6.586;2023-04-25T17:54:22;2.90;;;1.20;;
14316;SDS011;7242;50.858;6.586;2023-04-25T17:57:24;4.40;;;1.40;;
14316;SDS011;7242;50.858;6.586;2023-04-25T18:00:25;7.63;;;1.30;;
14316;SDS011;7242;50.858;6.586;2023-04-25T18:03:26;6.23;;;1.40;;
14316;SDS011;7242;50.858;6.586;2023-04-25T18:06:28;2.23;;;1.27;;
14316;SDS011;7242;50.858;6.586;2023-04-25T18:09:29;3.57;;;1.20;;
14316;SDS011;7242;50.858;6.586;2023-04-25T18:12:31;3.20;;;1.50;;
14316;SDS011;7242;50.858;6.586;2023-04-25T18:15:33;5.53;;;1.83;;
14316;SDS011;7242;50.858;6.586;2023-04-25T18:18:34;2.17;;;1.30;;
14316;SDS011;7242;50.858;6.586;2023-04-25T18:21:39;3.53;;;1.40;;
14316;SDS011;7242;50.858;6.586;2023-04-25T18:24:40;2.47;;;1.40;;
14316;SDS011;7242;50.858;6.586;2023-04-25T18:27:43;3.73;;;1.60;;
14316;SDS011;7242;50.858;6.586;2023-04-25T18:30:45;4.13;;;1.40;;
14316;SDS011;7242;50.858;6.586;2023-04-25T18:33:46;2.50;;;1.50;;
14316;SDS011;7242;50.858;6.586;2023-04-25T18:36:47;5.93;;;1.70;;